Terminal Aerodrome Forecast
Issued by NWS

Home | Current Version | Previous Version | Text Only | Print | Product List | Glossary On
Versions: 1 2 3 4 5 6 7 8 9 10 11 12 13 14 15 16 17 18 19 20 21 22 23
000
FTUS43 KLSX 271700
TAFSUS
TAF
KSUS 271720Z 2718/2818 30006KT P6SM BKN030
     FM272200 VRB03KT P6SM SCT025
     FM280100 00000KT P6SM BKN070
     FM281400 15008KT P6SM SCT080=

USA.gov is the U.S. government's official web portal to all federal, state and local government web resources and services.